FIMP/MRU METAR and TAF weather

Enter ICAO airport designator
Station Type Date Time Source
FIMP METAR 2020/07/15 09:00 UTC NOAA

FIMP 150900Z 11014KT 9999 SCT018 25/18 Q1021


Station Type Date Time Source
FIMP Decoded METAR 2020/07/15 09:00 UTC NOAA

Plaisance Mauritius , Mauritius (FIMP) 20-26S 057-40E 57M
Jul 15, 2020 - 05:00 AM EDT / 2020.07.15 0900 UTC
Wind: from the ESE (110 degrees) at 16 MPH (14 KT):0
Visibility: greater than 7 mile(s):0
Sky conditions: partly cloudy
Temperature: 77 F (25 C)
Dew Point: 64 F (18 C)
Relative Humidity: 65%
Pressure (altimeter): 30.15 in. Hg (1021 hPa)
ob: FIMP 150900Z 11014KT 9999 SCT018 25/18 Q1021
cycle: 9

Station Type Date Time Source
FIMP TAF 2020/07/15 06:39 UTC NOAA

TAF TAF FIMP 150530Z 1506/1612 08010KT 9999 SCT016

Example: see airport list